INDIA METEOROLOGICAL DEPARTMENT, R.M.C. NEW DELHI
Dated:27 - 2 - 2017
METARS


Agartala   
VEAT 271030Z 00000KT 6000 NSC 29/14 Q1011 NOSIG=
Ahmedabad  
VAAH 271100Z 07004KT 8000 NSC 36/04 Q1010 NOSIG=
Allahabad  
VEAB 271030Z 28009KT 6000 SKC 30/05 Q1014 NOSIG=
Amritsar   
VIAR 271100Z VRB02KT 5000 HZ NSC 26/09 Q1014 NOSIG=
Aurangabad 
VAAU 271000Z 13003KT 6000 NSC 35/13 Q1013 NOSIG=
Bangalore  
VOBL 271100Z 09012KT 060V120 CAVOK 28/04 Q1015 NOSIG=
Baroda     
VABO 271000Z 16003KT 6000 NSC 37/07 Q1010 NOSIG=
Bhopal     
VABP 271100Z 05006KT 6000 NSC 31/04 Q1014 NOSIG=
Bhubaneswar
VEBS 271100Z 20008KT 4000 HZ FEW020 33/17 Q1010 NOSIG =
Chennai    
VOMM 271100Z 09008KT 7000 SCT020 29/21 Q1011 NOSIG=
Coimbatore 
VOCB 271100Z 10010KT 6000 FEW015 SCT080 32/13 Q1011 NOSIG=
Colombo    
VCBI 271040Z 22004KT 190V250 9000 FEW014 SCT016 FEW018CB 28/22 Q1007 NOSIG RMK NE/E/SE/S=
Delhi      
VIDP 271100Z 29007KT 4500 HZ NSC 28/05 Q1014 NOSIG=
Dehradun   
VIDN 271100Z 29008KT 6000 NSC 26/06 Q1014 =
Gauhati    
VEGT 271100Z 00000KT 3000 HZ FEW100 26/15 Q1011 NOSIG=
Gaya       
VEGY 271100Z 31007KT 7000 NSC 28/04 Q1013=
Goa        
VOGO 271100Z 28008KT 6000 FEW090 FEW220 33/23 Q1008 NOSIG=
Hyderabad  
VOHS 271100Z 06010KT 6000 32/6 Q1014 NOSIG =
Imphal     
VEIM 271100Z 29006KT 5000 HZ FEW020 23/06 Q1014 NOSIG =
Indore     
VAID 271000Z 10004KT 6000 NSC 33/09 Q1014 NOSIG=
Jabalpur   
VAJB 271100Z 36002KT 6000 NSC 29/03 Q1015=
Jaipur     
VIJP 271100Z VRB02KT 7000 NSC 31/M02 Q1014 NOSIG=
Khajuraho  
VEKO 271000Z 05008KT 6000 NSC 29/03 Q1014=
Kochi      
VOCI 271100Z 25009KT 5000 HZ FEW015 33/19 Q1006 NOSIG=
Kolkata    
VECC 271100Z 35005KT 3600 HZ NSC 31/11 Q1010 NOSIG=
Kozhikode  
VOCL 271100Z 28009KT 7000 FEW015 33/25 Q1007 NOSIG=
Lucknow    
VILK 271100Z 30006KT 5000 HZ NSC 29/06 Q1012 NOSIG=
Ludhiana   
VILD 271100Z 27004KT 5000 HZ NSC 27/07 Q1014=
Madurai    
VOMD 271100Z 02007KT 6000 FEW020 SCT100 33/18 Q1009 NOSIG=
Mumbai     
VABB 271100Z 28009KT 3000 FU NSC 33/16 Q1009 NOSIG=
Nagpur     
VANP 271100Z 35007KT 5000 HZ NSC 36/09 Q1012 NOSIG=
Patna      
VEPT 271100Z 29006KT 6000 NSC 28/07 Q1011 BECMG 5000 HZ =
Raipur     
VERP 271100Z 33004KT 6000 NSC 34/06 Q1012 NOSIG=
Safdarjung 
VIDD 271100Z 29005KT 4000 HZ NSC 28/10 Q1014 NOSIG=
Ranchi     
VERC 271100Z 32006KT 6000 NSC 28/05 Q1015 NOSIG=
Trichy     
VOTR 271100Z 07011KT 5000 HZ FEW018 SCT100 31/18 Q1009 NOSIG=
Trivandrum 
VOTV 271100Z 24007KT 5000 HZ SCT015 32/24 Q1007 NOSIG=
Udaipur    
VAUD 271100Z 15004KT 6000 NSC 33/05 Q1014 NOSIG=
Varanasi   
VEBN 271100Z 27007KT 6000 NSC 28/07 Q1013=
Vizag      
VOVZ 271100Z 18008KT 5000 HZ NSC 30/22 Q1011 NOSIG =
Male       
VRMM 271000Z 05012KT 9999 FEW018TCU BKN280 32/22 Q1007 NOSIG=
Gan        
VRMG 271100Z 36003KT 9999 SCT018TCU SCT260 31/25 Q1007=
Kathmandu  
VNKT 271120Z 23010KT 190V250 7000 FEW020 SCT030 18/08 Q1016 NOSIG=
Dhaka      
VGHS 271100Z 30010KT 4000 HZ NSC 29/08 Q1011 NOSIG=
Colombo    
VCBI 271040Z 22004KT 190V250 9000 FEW014 SCT016 FEW018CB 28/22 Q1007 NOSIG RMK NE/E/SE/S=
Karachi    
OPKC 271000Z 25007KT 7000 FEW030 32/14 Q1012 NOSIG=
Lahore     
OPLA 270955Z 31005KT 8000 NSC 29/05 Q1015 A29.99 NOSIG=
Leh        
VILH 271030Z 28008KT 6000 FEW070 04/-20 Q1026 NOSIG=
Sri Nagar  
VISR 271030Z 27004KT 8000 FEW025 SCT200 15/M05 Q1023 NOSIG=
Jammu      
VIJU 271030Z 24005KT 9999 FEW030 25/09 Q1013 NOSIG=
Jodhpur    
VIJO 271030Z 250008KT 8000 FEW250 33/04 Q1012 NOSIG=
Bhuj-Rudra 
VABJ 271030Z 20007KT 8000 SKC 36/01 Q1011 NOSIG=
Gorakhpur  
VEGK 271030Z 27007KT 6000 SKC 28/08 Q1012 NOSIG=
Agra       
VIAG 271030Z 24005KT 6000 NSC 29/07 Q1014 NOSIG =
Bagdogra   
VEBD 271030Z VRB01KT 5000 HZ FEW035 SCT250 26/14 Q1012 BECMG 4000=
Pune       
VAPO 271030Z 10007KT 8000 NSC 35/M08 Q1014 NOSIG=
Chandigarh 
VICG 271030Z 30013KT 6000 SKC 26/09 Q1014 NOSIG=
Jamnagar   
VAJM 271030Z 34009KT 8000 SKC 33/09 Q1010 NOSIG=